sensor_id;sensor_type;location;lat;lon;timestamp;pressure;altitude;pressure_sealevel;temperature;humidity
64698;BME280;51124;53.394;-6.294;2023-07-24T00:02:22;100122.06;;;21.15;15.03
64698;BME280;51124;53.394;-6.294;2023-07-24T00:04:55;100127.09;;;21.27;14.82
64698;BME280;51124;53.394;-6.294;2023-07-24T00:07:33;100128.54;;;21.22;14.69
64698;BME280;51124;53.394;-6.294;2023-07-24T00:10:01;100131.01;;;21.25;14.84
64698;BME280;51124;53.394;-6.294;2023-07-24T00:12:29;100133.63;;;22.05;14.85
64698;BME280;51124;53.394;-6.294;2023-07-24T00:14:56;100132.70;;;21.32;14.89
64698;BME280;51124;53.394;-6.294;2023-07-24T00:17:24;100133.33;;;21.24;15.00
64698;BME280;51124;53.394;-6.294;2023-07-24T00:19:51;100132.28;;;21.30;14.78
64698;BME280;51124;53.394;-6.294;2023-07-24T00:22:18;100135.63;;;20.75;14.81
64698;BME280;51124;53.394;-6.294;2023-07-24T00:24:46;100135.21;;;20.12;14.90
64698;BME280;51124;53.394;-6.294;2023-07-24T00:27:13;100135.08;;;19.93;14.06
64698;BME280;51124;53.394;-6.294;2023-07-24T00:29:40;100136.91;;;18.52;14.10
64698;BME280;51124;53.394;-6.294;2023-07-24T00:32:08;100139.73;;;17.96;13.91
64698;BME280;51124;53.394;-6.294;2023-07-24T00:34:35;100137.27;;;19.39;13.36
64698;BME280;51124;53.394;-6.294;2023-07-24T00:37:03;100138.02;;;19.85;13.09
64698;BME280;51124;53.394;-6.294;2023-07-24T00:39:30;100140.09;;;19.01;12.99
64698;BME280;51124;53.394;-6.294;2023-07-24T00:41:57;100144.26;;;19.09;12.89
64698;BME280;51124;53.394;-6.294;2023-07-24T00:44:24;100145.34;;;18.94;12.74
64698;BME280;51124;53.394;-6.294;2023-07-24T00:46:52;100148.99;;;19.35;12.84
64698;BME280;51124;53.394;-6.294;2023-07-24T00:49:20;100148.64;;;19.06;12.76
64698;BME280;51124;53.394;-6.294;2023-07-24T00:51:47;100151.05;;;18.21;12.86
64698;BME280;51124;53.394;-6.294;2023-07-24T00:54:16;100147.63;;;19.98;12.48
64698;BME280;51124;53.394;-6.294;2023-07-24T00:56:44;100148.83;;;18.20;12.77
64698;BME280;51124;53.394;-6.294;2023-07-24T00:59:11;100147.64;;;19.93;12.29
64698;BME280;51124;53.394;-6.294;2023-07-24T01:01:39;100149.12;;;18.37;12.65
64698;BME280;51124;53.394;-6.294;2023-07-24T01:04:07;100148.91;;;19.00;12.35
64698;BME280;51124;53.394;-6.294;2023-07-24T01:06:35;100149.90;;;18.79;12.53
64698;BME280;51124;53.394;-6.294;2023-07-24T01:09:02;100147.25;;;18.87;12.42
64698;BME280;51124;53.394;-6.294;2023-07-24T01:11:33;100149.40;;;18.61;12.53
64698;BME280;51124;53.394;-6.294;2023-07-24T01:14:05;100149.68;;;19.46;12.26
64698;BME280;51124;53.394;-6.294;2023-07-24T01:16:39;100148.73;;;18.54;12.54
64698;BME280;51124;53.394;-6.294;2023-07-24T01:19:21;100144.70;;;19.29;12.30
64698;BME280;51124;53.394;-6.294;2023-07-24T01:21:49;100144.51;;;19.67;12.20
64698;BME280;51124;53.394;-6.294;2023-07-24T01:24:19;100145.59;;;18.73;12.44
64698;BME280;51124;53.394;-6.294;2023-07-24T01:26:40;100148.59;;;18.99;12.36
64698;BME280;51124;53.394;-6.294;2023-07-24T01:29:08;100148.89;;;18.40;12.60
64698;BME280;51124;53.394;-6.294;2023-07-24T01:31:35;100148.04;;;19.39;12.18
64698;BME280;51124;53.394;-6.294;2023-07-24T01:34:02;100154.89;;;18.33;12.55
64698;BME280;51124;53.394;-6.294;2023-07-24T01:36:30;100155.90;;;18.94;12.17
64698;BME280;51124;53.394;-6.294;2023-07-24T01:38:57;100159.75;;;19.78;12.22
64698;BME280;51124;53.394;-6.294;2023-07-24T01:41:25;100164.74;;;18.76;12.54
64698;BME280;51124;53.394;-6.294;2023-07-24T01:43:53;100166.45;;;18.73;12.28
64698;BME280;51124;53.394;-6.294;2023-07-24T01:46:20;100163.91;;;18.10;12.37
64698;BME280;51124;53.394;-6.294;2023-07-24T01:48:47;100166.12;;;18.88;12.50
64698;BME280;51124;53.394;-6.294;2023-07-24T01:51:14;100164.36;;;19.32;12.25
64698;BME280;51124;53.394;-6.294;2023-07-24T01:53:42;100164.92;;;19.49;12.14
64698;BME280;51124;53.394;-6.294;2023-07-24T01:56:09;100168.23;;;18.60;12.60
64698;BME280;51124;53.394;-6.294;2023-07-24T01:58:36;100167.06;;;17.89;12.74
64698;BME280;51124;53.394;-6.294;2023-07-24T02:01:03;100168.86;;;18.63;12.45
64698;BME280;51124;53.394;-6.294;2023-07-24T02:03:31;100176.67;;;18.78;12.63
64698;BME280;51124;53.394;-6.294;2023-07-24T02:05:58;100177.47;;;18.83;12.47
64698;BME280;51124;53.394;-6.294;2023-07-24T02:08:25;100176.34;;;18.92;12.45
64698;BME280;51124;53.394;-6.294;2023-07-24T02:10:52;100178.29;;;18.86;12.44
64698;BME280;51124;53.394;-6.294;2023-07-24T02:13:19;100185.00;;;18.51;12.50
64698;BME280;51124;53.394;-6.294;2023-07-24T02:15:47;100183.17;;;18.12;12.49
64698;BME280;51124;53.394;-6.294;2023-07-24T02:18:14;100181.54;;;18.93;12.21
64698;BME280;51124;53.394;-6.294;2023-07-24T02:20:41;100179.92;;;18.89;12.34
64698;BME280;51124;53.394;-6.294;2023-07-24T02:23:15;100179.07;;;21.04;12.30
64698;BME280;51124;53.394;-6.294;2023-07-24T02:25:42;100180.04;;;20.87;12.94
64698;BME280;51124;53.394;-6.294;2023-07-24T02:28:09;100181.86;;;19.74;12.85
64698;BME280;51124;53.394;-6.294;2023-07-24T02:30:39;100185.02;;;19.25;12.96
64698;BME280;51124;53.394;-6.294;2023-07-24T02:33:06;100189.31;;;22.46;13.36
64698;BME280;51124;53.394;-6.294;2023-07-24T02:35:40;100192.62;;;21.26;14.13
64698;BME280;51124;53.394;-6.294;2023-07-24T02:38:07;100190.66;;;20.99;14.48
64698;BME280;51124;53.394;-6.294;2023-07-24T02:40:35;100196.96;;;21.90;14.40
64698;BME280;51124;53.394;-6.294;2023-07-24T02:43:03;100199.48;;;21.79;14.57
64698;BME280;51124;53.394;-6.294;2023-07-24T02:45:33;100202.33;;;20.76;14.89
64698;BME280;51124;53.394;-6.294;2023-07-24T02:48:01;100201.82;;;21.02;15.09
64698;BME280;51124;53.394;-6.294;2023-07-24T02:50:28;100202.78;;;21.81;14.57
64698;BME280;51124;53.394;-6.294;2023-07-24T02:52:55;100200.56;;;21.37;14.91
64698;BME280;51124;53.394;-6.294;2023-07-24T02:55:23;100201.16;;;20.69;15.19
64698;BME280;51124;53.394;-6.294;2023-07-24T02:57:51;100199.25;;;21.17;15.00
64698;BME280;51124;53.394;-6.294;2023-07-24T03:00:18;100200.24;;;21.39;14.89
64698;BME280;51124;53.394;-6.294;2023-07-24T03:02:46;100201.38;;;20.74;15.22
64698;BME280;51124;53.394;-6.294;2023-07-24T03:05:13;100201.25;;;21.82;14.87
64698;BME280;51124;53.394;-6.294;2023-07-24T03:07:41;100205.38;;;20.41;15.33
64698;BME280;51124;53.394;-6.294;2023-07-24T03:10:08;100200.54;;;20.90;15.22
64698;BME280;51124;53.394;-6.294;2023-07-24T03:12:36;100205.27;;;20.16;15.16
64698;BME280;51124;53.394;-6.294;2023-07-24T03:15:04;100206.87;;;20.93;15.23
64698;BME280;51124;53.394;-6.294;2023-07-24T03:17:32;100207.98;;;20.83;15.22
64698;BME280;51124;53.394;-6.294;2023-07-24T03:19:59;100205.52;;;20.90;15.17
64698;BME280;51124;53.394;-6.294;2023-07-24T03:22:24;100207.69;;;20.18;15.05
64698;BME280;51124;53.394;-6.294;2023-07-24T03:24:51;100208.98;;;19.49;14.50
64698;BME280;51124;53.394;-6.294;2023-07-24T03:27:18;100209.04;;;18.90;14.06
64698;BME280;51124;53.394;-6.294;2023-07-24T03:29:46;100206.77;;;19.23;13.53
64698;BME280;51124;53.394;-6.294;2023-07-24T03:32:13;100209.78;;;19.64;13.54
64698;BME280;51124;53.394;-6.294;2023-07-24T03:34:40;100209.20;;;19.68;13.44
64698;BME280;51124;53.394;-6.294;2023-07-24T03:37:07;100210.54;;;18.90;13.18
64698;BME280;51124;53.394;-6.294;2023-07-24T03:39:34;100212.66;;;18.90;12.99
64698;BME280;51124;53.394;-6.294;2023-07-24T03:42:02;100211.49;;;18.63;13.03
64698;BME280;51124;53.394;-6.294;2023-07-24T03:44:29;100216.95;;;18.40;12.91
64698;BME280;51124;53.394;-6.294;2023-07-24T03:46:56;100217.98;;;19.18;12.78
64698;BME280;51124;53.394;-6.294;2023-07-24T03:49:24;100225.33;;;19.51;12.58
64698;BME280;51124;53.394;-6.294;2023-07-24T03:51:51;100229.40;;;18.95;12.70
64698;BME280;51124;53.394;-6.294;2023-07-24T03:54:18;100233.30;;;18.59;12.79
64698;BME280;51124;53.394;-6.294;2023-07-24T03:56:45;100233.33;;;18.95;12.46
64698;BME280;51124;53.394;-6.294;2023-07-24T03:59:13;100234.40;;;19.13;12.47
64698;BME280;51124;53.394;-6.294;2023-07-24T04:01:40;100234.23;;;17.82;12.83
64698;BME280;51124;53.394;-6.294;2023-07-24T04:04:07;100235.61;;;18.65;12.65
64698;BME280;51124;53.394;-6.294;2023-07-24T04:06:34;100236.38;;;18.78;12.50
64698;BME280;51124;53.394;-6.294;2023-07-24T04:09:02;100238.71;;;18.09;12.70
64698;BME280;51124;53.394;-6.294;2023-07-24T04:11:29;100239.42;;;19.42;12.17
64698;BME280;51124;53.394;-6.294;2023-07-24T04:13:56;100241.87;;;19.39;12.06
64698;BME280;51124;53.394;-6.294;2023-07-24T04:16:23;100246.30;;;19.60;12.12
64698;BME280;51124;53.394;-6.294;2023-07-24T04:18:50;100247.53;;;18.15;12.47
64698;BME280;51124;53.394;-6.294;2023-07-24T04:21:18;100246.44;;;19.00;12.18
64698;BME280;51124;53.394;-6.294;2023-07-24T04:23:45;100248.46;;;18.45;12.25
64698;BME280;51124;53.394;-6.294;2023-07-24T04:26:12;100247.78;;;19.17;12.02
64698;BME280;51124;53.394;-6.294;2023-07-24T04:28:39;100248.44;;;18.66;12.32
64698;BME280;51124;53.394;-6.294;2023-07-24T04:31:07;100249.47;;;18.46;12.33
64698;BME280;51124;53.394;-6.294;2023-07-24T04:33:34;100249.84;;;18.59;12.32
64698;BME280;51124;53.394;-6.294;2023-07-24T04:36:01;100251.84;;;19.27;12.37
64698;BME280;51124;53.394;-6.294;2023-07-24T04:38:28;100256.17;;;19.78;12.08
64698;BME280;51124;53.394;-6.294;2023-07-24T04:40:56;100256.36;;;18.70;12.49
64698;BME280;51124;53.394;-6.294;2023-07-24T04:43:23;100258.67;;;19.10;11.98
64698;BME280;51124;53.394;-6.294;2023-07-24T04:45:50;100261.21;;;17.90;12.58
64698;BME280;51124;53.394;-6.294;2023-07-24T04:48:18;100260.21;;;19.61;12.00
64698;BME280;51124;53.394;-6.294;2023-07-24T04:50:45;100265.31;;;19.03;12.32
64698;BME280;51124;53.394;-6.294;2023-07-24T04:53:12;100269.48;;;19.23;12.34
64698;BME280;51124;53.394;-6.294;2023-07-24T04:55:39;100268.33;;;19.11;12.36
64698;BME280;51124;53.394;-6.294;2023-07-24T04:58:06;100270.99;;;18.18;12.54
64698;BME280;51124;53.394;-6.294;2023-07-24T05:00:33;100266.08;;;18.97;12.34
64698;BME280;51124;53.394;-6.294;2023-07-24T05:03:01;100266.64;;;18.63;12.39
64698;BME280;51124;53.394;-6.294;2023-07-24T05:05:28;100273.08;;;18.44;12.47
64698;BME280;51124;53.394;-6.294;2023-07-24T05:07:55;100275.62;;;18.91;12.47
64698;BME280;51124;53.394;-6.294;2023-07-24T05:10:22;100277.93;;;18.38;12.33
64698;BME280;51124;53.394;-6.294;2023-07-24T05:12:50;100280.81;;;18.32;11.93
64698;BME280;51124;53.394;-6.294;2023-07-24T05:15:17;100287.69;;;18.85;11.85
64698;BME280;51124;53.394;-6.294;2023-07-24T05:17:44;100290.20;;;17.97;12.10
64698;BME280;51124;53.394;-6.294;2023-07-24T05:20:12;100289.68;;;20.06;11.85
64698;BME280;51124;53.394;-6.294;2023-07-24T05:22:39;100292.11;;;21.77;11.99
64698;BME280;51124;53.394;-6.294;2023-07-24T05:25:08;100296.81;;;18.76;12.83
64698;BME280;51124;53.394;-6.294;2023-07-24T05:27:35;100305.12;;;19.14;12.38
64698;BME280;51124;53.394;-6.294;2023-07-24T05:30:03;100305.18;;;22.53;12.94
64698;BME280;51124;53.394;-6.294;2023-07-24T05:32:31;100308.57;;;22.40;13.40
64698;BME280;51124;53.394;-6.294;2023-07-24T05:34:58;100310.72;;;21.10;13.57
64698;BME280;51124;53.394;-6.294;2023-07-24T05:37:25;100309.52;;;21.08;13.64
64698;BME280;51124;53.394;-6.294;2023-07-24T05:39:53;100313.83;;;21.26;13.85
64698;BME280;51124;53.394;-6.294;2023-07-24T05:42:20;100317.06;;;21.75;13.82
64698;BME280;51124;53.394;-6.294;2023-07-24T05:44:48;100312.75;;;21.11;14.08
64698;BME280;51124;53.394;-6.294;2023-07-24T05:47:15;100316.54;;;20.69;14.24
64698;BME280;51124;53.394;-6.294;2023-07-24T05:49:43;100315.68;;;21.55;14.16
64698;BME280;51124;53.394;-6.294;2023-07-24T05:52:10;100327.57;;;20.56;14.38
64698;BME280;51124;53.394;-6.294;2023-07-24T05:54:37;100323.55;;;21.28;14.14
64698;BME280;51124;53.394;-6.294;2023-07-24T05:57:05;100324.84;;;22.20;13.91
64698;BME280;51124;53.394;-6.294;2023-07-24T05:59:31;100328.54;;;22.07;13.91
64698;BME280;51124;53.394;-6.294;2023-07-24T06:01:54;100328.75;;;21.85;14.06
64698;BME280;51124;53.394;-6.294;2023-07-24T06:04:28;100332.72;;;21.54;14.24
64698;BME280;51124;53.394;-6.294;2023-07-24T06:07:02;100333.57;;;20.49;14.78
64698;BME280;51124;53.394;-6.294;2023-07-24T06:09:35;100333.25;;;20.67;14.75
64698;BME280;51124;53.394;-6.294;2023-07-24T06:12:09;100331.63;;;21.37;14.37
64698;BME280;51124;53.394;-6.294;2023-07-24T06:14:42;100333.38;;;21.25;14.46
64698;BME280;51124;53.394;-6.294;2023-07-24T06:17:16;100331.08;;;21.75;14.18
64698;BME280;51124;53.394;-6.294;2023-07-24T06:19:50;100333.41;;;19.70;14.24
64698;BME280;51124;53.394;-6.294;2023-07-24T06:22:23;100332.76;;;19.88;13.59
64698;BME280;51124;53.394;-6.294;2023-07-24T06:24:56;100331.91;;;19.45;13.35
64698;BME280;51124;53.394;-6.294;2023-07-24T06:27:30;100331.18;;;19.10;13.07
64698;BME280;51124;53.394;-6.294;2023-07-24T06:30:04;100330.83;;;20.80;12.42
64698;BME280;51124;53.394;-6.294;2023-07-24T06:32:40;100332.74;;;18.34;12.70
64698;BME280;51124;53.394;-6.294;2023-07-24T06:35:03;100333.82;;;19.46;12.36
64698;BME280;51124;53.394;-6.294;2023-07-24T06:37:37;100333.19;;;19.22;12.15
64698;BME280;51124;53.394;-6.294;2023-07-24T06:40:11;100332.36;;;19.74;12.05
64698;BME280;51124;53.394;-6.294;2023-07-24T06:42:45;100331.95;;;18.76;12.31
64698;BME280;51124;53.394;-6.294;2023-07-24T06:45:18;100333.87;;;19.56;12.03
64698;BME280;51124;53.394;-6.294;2023-07-24T06:47:52;100337.72;;;18.78;12.31
64698;BME280;51124;53.394;-6.294;2023-07-24T06:50:25;100339.67;;;19.32;11.89
64698;BME280;51124;53.394;-6.294;2023-07-24T06:52:58;100347.13;;;19.19;12.00
64698;BME280;51124;53.394;-6.294;2023-07-24T06:55:32;100349.91;;;20.21;11.11
64698;BME280;51124;53.394;-6.294;2023-07-24T06:58:05;100347.34;;;19.65;11.45
64698;BME280;51124;53.394;-6.294;2023-07-24T07:00:38;100341.58;;;19.03;11.45
64698;BME280;51124;53.394;-6.294;2023-07-24T07:03:12;100340.89;;;19.01;11.81
64698;BME280;51124;53.394;-6.294;2023-07-24T07:05:46;100344.85;;;19.42;11.48
64698;BME280;51124;53.394;-6.294;2023-07-24T07:08:19;100350.47;;;18.79;12.28
64698;BME280;51124;53.394;-6.294;2023-07-24T07:10:55;100349.96;;;18.04;12.71
64698;BME280;51124;53.394;-6.294;2023-07-24T07:13:18;100352.30;;;18.82;12.45
64698;BME280;51124;53.394;-6.294;2023-07-24T07:15:52;100354.61;;;19.36;12.07
64698;BME280;51124;53.394;-6.294;2023-07-24T07:18:25;100357.17;;;19.59;11.98
64698;BME280;51124;53.394;-6.294;2023-07-24T07:20:59;100360.67;;;20.00;11.69
64698;BME280;51124;53.394;-6.294;2023-07-24T07:23:32;100360.70;;;19.72;11.93
64698;BME280;51124;53.394;-6.294;2023-07-24T07:26:05;100359.93;;;19.06;12.40
64698;BME280;51124;53.394;-6.294;2023-07-24T07:28:39;100359.00;;;20.22;11.79
64698;BME280;51124;53.394;-6.294;2023-07-24T07:31:12;100358.26;;;19.44;11.97
64698;BME280;51124;53.394;-6.294;2023-07-24T07:33:45;100359.42;;;19.45;12.08
64698;BME280;51124;53.394;-6.294;2023-07-24T07:36:19;100363.43;;;19.22;12.20
64698;BME280;51124;53.394;-6.294;2023-07-24T07:38:53;100364.13;;;18.68;12.25
64698;BME280;51124;53.394;-6.294;2023-07-24T07:41:26;100370.27;;;19.54;11.98
64698;BME280;51124;53.394;-6.294;2023-07-24T07:43:59;100374.24;;;19.71;11.96
64698;BME280;51124;53.394;-6.294;2023-07-24T07:46:33;100377.22;;;19.11;12.16
64698;BME280;51124;53.394;-6.294;2023-07-24T07:49:06;100378.61;;;19.57;12.21
64698;BME280;51124;53.394;-6.294;2023-07-24T07:51:39;100379.49;;;19.77;12.27
64698;BME280;51124;53.394;-6.294;2023-07-24T07:54:13;100381.23;;;19.77;12.33
64698;BME280;51124;53.394;-6.294;2023-07-24T07:56:46;100383.25;;;19.32;12.23
64698;BME280;51124;53.394;-6.294;2023-07-24T07:59:20;100386.22;;;19.21;12.51
64698;BME280;51124;53.394;-6.294;2023-07-24T08:01:53;100384.46;;;19.97;12.26
64698;BME280;51124;53.394;-6.294;2023-07-24T08:04:26;100385.39;;;19.63;12.12
64698;BME280;51124;53.394;-6.294;2023-07-24T08:07:00;100386.35;;;19.56;12.25
64698;BME280;51124;53.394;-6.294;2023-07-24T08:09:33;100384.60;;;20.12;12.06
64698;BME280;51124;53.394;-6.294;2023-07-24T08:12:07;100385.71;;;20.30;11.87
64698;BME280;51124;53.394;-6.294;2023-07-24T08:14:41;100388.94;;;19.25;12.13
64698;BME280;51124;53.394;-6.294;2023-07-24T08:17:14;100390.10;;;19.32;12.10
64698;BME280;51124;53.394;-6.294;2023-07-24T08:19:48;100392.53;;;21.42;12.24
64698;BME280;51124;53.394;-6.294;2023-07-24T08:22:21;100404.54;;;21.49;13.01
64698;BME280;51124;53.394;-6.294;2023-07-24T08:24:55;100406.56;;;19.41;13.24
64698;BME280;51124;53.394;-6.294;2023-07-24T08:27:28;100405.90;;;20.29;13.27
64698;BME280;51124;53.394;-6.294;2023-07-24T08:30:02;100410.15;;;22.40;13.58
64698;BME280;51124;53.394;-6.294;2023-07-24T08:32:35;100416.71;;;22.02;14.32
64698;BME280;51124;53.394;-6.294;2023-07-24T08:35:09;100419.64;;;21.44;14.74
64698;BME280;51124;53.394;-6.294;2023-07-24T08:37:43;100422.06;;;21.64;14.54
64698;BME280;51124;53.394;-6.294;2023-07-24T08:40:18;100427.10;;;21.34;14.63
64698;BME280;51124;53.394;-6.294;2023-07-24T08:42:43;100425.46;;;22.01;14.45
64698;BME280;51124;53.394;-6.294;2023-07-24T08:45:17;100420.67;;;22.67;14.19
64698;BME280;51124;53.394;-6.294;2023-07-24T08:47:51;100424.36;;;23.42;13.57
64698;BME280;51124;53.394;-6.294;2023-07-24T08:50:25;100425.37;;;22.57;13.42
64698;BME280;51124;53.394;-6.294;2023-07-24T08:52:59;100427.36;;;22.41;13.29
64698;BME280;51124;53.394;-6.294;2023-07-24T08:55:33;100426.43;;;22.48;13.37
64698;BME280;51124;53.394;-6.294;2023-07-24T08:58:07;100432.14;;;21.94;13.61
64698;BME280;51124;53.394;-6.294;2023-07-24T09:00:41;100436.25;;;21.23;13.76
64698;BME280;51124;53.394;-6.294;2023-07-24T09:03:15;100434.55;;;22.03;13.65
64698;BME280;51124;53.394;-6.294;2023-07-24T09:05:49;100435.44;;;21.13;13.73
64698;BME280;51124;53.394;-6.294;2023-07-24T09:08:30;100436.54;;;20.95;13.77
64698;BME280;51124;53.394;-6.294;2023-07-24T09:10:53;100434.21;;;21.39;13.74
64698;BME280;51124;53.394;-6.294;2023-07-24T09:13:27;100434.20;;;21.49;13.53
64698;BME280;51124;53.394;-6.294;2023-07-24T09:16:00;100438.77;;;22.10;13.51
64698;BME280;51124;53.394;-6.294;2023-07-24T09:18:42;100439.45;;;21.40;13.22
64698;BME280;51124;53.394;-6.294;2023-07-24T09:21:05;100439.41;;;19.66;12.78
64698;BME280;51124;53.394;-6.294;2023-07-24T09:23:39;100440.37;;;20.16;12.45
64698;BME280;51124;53.394;-6.294;2023-07-24T09:26:12;100433.75;;;20.04;11.88
64698;BME280;51124;53.394;-6.294;2023-07-24T09:28:51;100431.07;;;21.18;11.79
64698;BME280;51124;53.394;-6.294;2023-07-24T09:31:15;100429.58;;;20.51;11.96
64698;BME280;51124;53.394;-6.294;2023-07-24T09:33:48;100430.07;;;20.25;11.79
64698;BME280;51124;53.394;-6.294;2023-07-24T09:36:22;100426.40;;;20.16;11.55
64698;BME280;51124;53.394;-6.294;2023-07-24T09:39:00;100427.41;;;20.43;11.48
64698;BME280;51124;53.394;-6.294;2023-07-24T09:41:27;100425.35;;;19.72;11.27
64698;BME280;51124;53.394;-6.294;2023-07-24T09:43:58;100423.77;;;19.88;10.89
64698;BME280;51124;53.394;-6.294;2023-07-24T09:46:21;100419.90;;;20.12;10.97
64698;BME280;51124;53.394;-6.294;2023-07-24T09:48:55;100421.48;;;19.25;11.33
64698;BME280;51124;53.394;-6.294;2023-07-24T09:51:30;100420.97;;;20.18;10.85
64698;BME280;51124;53.394;-6.294;2023-07-24T09:54:08;100424.01;;;20.15;10.33
64698;BME280;51124;53.394;-6.294;2023-07-24T09:56:34;100423.86;;;21.13;10.40
64698;BME280;51124;53.394;-6.294;2023-07-24T09:58:59;100425.59;;;20.15;10.46
64698;BME280;51124;53.394;-6.294;2023-07-24T10:01:33;100424.97;;;20.09;10.59
64698;BME280;51124;53.394;-6.294;2023-07-24T10:04:07;100424.74;;;20.19;10.44
64698;BME280;51124;53.394;-6.294;2023-07-24T10:06:41;100432.16;;;20.49;10.55
64698;BME280;51124;53.394;-6.294;2023-07-24T10:09:16;100431.86;;;19.90;10.46
64698;BME280;51124;53.394;-6.294;2023-07-24T10:11:49;100434.39;;;20.04;10.44
64698;BME280;51124;53.394;-6.294;2023-07-24T10:14:23;100433.46;;;20.32;10.39
64698;BME280;51124;53.394;-6.294;2023-07-24T10:16:57;100431.99;;;20.46;10.32
64698;BME280;51124;53.394;-6.294;2023-07-24T10:19:36;100432.15;;;20.00;10.47
64698;BME280;51124;53.394;-6.294;2023-07-24T10:21:59;100431.42;;;20.22;10.45
64698;BME280;51124;53.394;-6.294;2023-07-24T10:24:33;100436.02;;;20.32;10.31
64698;BME280;51124;53.394;-6.294;2023-07-24T10:27:07;100433.47;;;20.38;10.44
64698;BME280;51124;53.394;-6.294;2023-07-24T10:29:40;100431.85;;;20.22;10.62
64698;BME280;51124;53.394;-6.294;2023-07-24T10:32:17;100434.83;;;20.20;10.61
64698;BME280;51124;53.394;-6.294;2023-07-24T10:34:40;100432.32;;;20.54;10.52
64698;BME280;51124;53.394;-6.294;2023-07-24T10:37:14;100433.53;;;20.19;10.28
64698;BME280;51124;53.394;-6.294;2023-07-24T10:39:48;100431.58;;;20.29;9.90
64698;BME280;51124;53.394;-6.294;2023-07-24T10:42:22;100431.50;;;20.89;9.65
64698;BME280;51124;53.394;-6.294;2023-07-24T10:45:03;100436.41;;;20.78;10.08
64698;BME280;51124;53.394;-6.294;2023-07-24T10:47:27;100443.14;;;19.95;10.31
64698;BME280;51124;53.394;-6.294;2023-07-24T10:50:00;100443.28;;;20.18;10.42
64698;BME280;51124;53.394;-6.294;2023-07-24T10:52:34;100446.18;;;20.38;10.54
64698;BME280;51124;53.394;-6.294;2023-07-24T10:55:07;100446.31;;;21.04;10.33
64698;BME280;51124;53.394;-6.294;2023-07-24T10:57:41;100443.94;;;20.65;10.02
64698;BME280;51124;53.394;-6.294;2023-07-24T11:00:15;100442.90;;;21.21;9.88
64698;BME280;51124;53.394;-6.294;2023-07-24T11:02:49;100447.89;;;21.66;9.72
64698;BME280;51124;53.394;-6.294;2023-07-24T11:05:16;100449.33;;;20.59;10.13
64698;BME280;51124;53.394;-6.294;2023-07-24T11:07:50;100448.94;;;20.54;10.16
64698;BME280;51124;53.394;-6.294;2023-07-24T11:10:23;100448.05;;;20.27;9.96
64698;BME280;51124;53.394;-6.294;2023-07-24T11:12:56;100452.65;;;20.73;9.86
64698;BME280;51124;53.394;-6.294;2023-07-24T11:15:30;100450.54;;;20.08;10.08
64698;BME280;51124;53.394;-6.294;2023-07-24T11:18:04;100447.54;;;20.54;9.67
64698;BME280;51124;53.394;-6.294;2023-07-24T11:20:38;100444.14;;;22.91;9.66
64698;BME280;51124;53.394;-6.294;2023-07-24T11:23:12;100445.28;;;21.92;10.20
64698;BME280;51124;53.394;-6.294;2023-07-24T11:25:46;100443.01;;;20.80;10.53
64698;BME280;51124;53.394;-6.294;2023-07-24T11:28:20;100443.19;;;20.78;10.60
64698;BME280;51124;53.394;-6.294;2023-07-24T11:30:53;100441.98;;;22.71;11.03
64698;BME280;51124;53.394;-6.294;2023-07-24T11:33:27;100441.76;;;22.77;11.30
64698;BME280;51124;53.394;-6.294;2023-07-24T11:36:01;100446.57;;;22.34;11.76
64698;BME280;51124;53.394;-6.294;2023-07-24T11:38:34;100449.13;;;23.24;12.03
64698;BME280;51124;53.394;-6.294;2023-07-24T11:41:08;100454.50;;;22.28;12.15
64698;BME280;51124;53.394;-6.294;2023-07-24T11:43:46;100449.08;;;22.92;11.98
64698;BME280;51124;53.394;-6.294;2023-07-24T11:46:09;100447.72;;;23.19;11.79
64698;BME280;51124;53.394;-6.294;2023-07-24T11:48:43;100450.24;;;23.12;11.95
64698;BME280;51124;53.394;-6.294;2023-07-24T11:51:16;100448.16;;;23.62;11.74
64698;BME280;51124;53.394;-6.294;2023-07-24T11:53:51;100449.78;;;23.11;12.01
64698;BME280;51124;53.394;-6.294;2023-07-24T11:56:24;100450.90;;;23.02;12.05
64698;BME280;51124;53.394;-6.294;2023-07-24T11:59:08;100452.83;;;23.01;12.10
64698;BME280;51124;53.394;-6.294;2023-07-24T12:01:32;100455.65;;;22.25;12.25
64698;BME280;51124;53.394;-6.294;2023-07-24T12:04:05;100452.28;;;22.38;12.08
64698;BME280;51124;53.394;-6.294;2023-07-24T12:06:39;100446.78;;;23.32;11.93
64698;BME280;51124;53.394;-6.294;2023-07-24T12:09:13;100453.84;;;22.75;12.21
64698;BME280;51124;53.394;-6.294;2023-07-24T12:11:47;100450.83;;;22.22;12.41
64698;BME280;51124;53.394;-6.294;2023-07-24T12:14:20;100455.04;;;22.22;12.38
64698;BME280;51124;53.394;-6.294;2023-07-24T12:17:00;100457.29;;;22.02;12.47
64698;BME280;51124;53.394;-6.294;2023-07-24T12:19:23;100453.79;;;21.23;12.67
64698;BME280;51124;53.394;-6.294;2023-07-24T12:21:57;100452.44;;;20.19;12.06
64698;BME280;51124;53.394;-6.294;2023-07-24T12:24:30;100450.78;;;20.39;11.60
64698;BME280;51124;53.394;-6.294;2023-07-24T12:27:04;100447.42;;;20.75;11.15
64698;BME280;51124;53.394;-6.294;2023-07-24T12:29:37;100446.17;;;20.87;11.50
64698;BME280;51124;53.394;-6.294;2023-07-24T12:32:10;100446.14;;;19.48;11.93
64698;BME280;51124;53.394;-6.294;2023-07-24T12:34:46;100441.76;;;21.50;10.92
64698;BME280;51124;53.394;-6.294;2023-07-24T12:37:09;100438.48;;;21.84;10.31
64698;BME280;51124;53.394;-6.294;2023-07-24T12:39:45;100434.16;;;21.64;10.50
64698;BME280;51124;53.394;-6.294;2023-07-24T12:42:08;100436.72;;;21.17;10.44
64698;BME280;51124;53.394;-6.294;2023-07-24T12:44:42;100435.16;;;21.37;10.44
64698;BME280;51124;53.394;-6.294;2023-07-24T12:47:16;100433.78;;;21.35;10.74
64698;BME280;51124;53.394;-6.294;2023-07-24T12:49:49;100432.35;;;20.98;10.75
64698;BME280;51124;53.394;-6.294;2023-07-24T12:52:22;100431.56;;;21.41;10.66
64698;BME280;51124;53.394;-6.294;2023-07-24T12:55:00;100430.11;;;21.25;10.36
64698;BME280;51124;53.394;-6.294;2023-07-24T12:57:25;100433.40;;;19.86;10.85